createdAt,value
2022-11-24T00:00:12.978Z,997.49
2022-11-24T00:01:13.011Z,997.52
2022-11-24T00:02:13.052Z,997.51
2022-11-24T00:03:13.067Z,997.48
2022-11-24T00:04:12.938Z,997.48
2022-11-24T00:05:12.930Z,997.47
2022-11-24T00:06:12.917Z,997.52
2022-11-24T00:07:12.972Z,997.59
2022-11-24T00:08:12.889Z,997.56
2022-11-24T00:09:12.886Z,997.57
2022-11-24T00:10:12.868Z,997.56
2022-11-24T00:11:12.867Z,997.57
2022-11-24T00:12:12.868Z,997.54
2022-11-24T00:13:12.840Z,997.60
2022-11-24T00:14:12.829Z,997.60
2022-11-24T00:15:12.819Z,997.61
2022-11-24T00:16:12.860Z,997.56
2022-11-24T00:17:12.820Z,997.59
2022-11-24T00:18:12.786Z,997.60
2022-11-24T00:19:17.018Z,997.60
2022-11-24T00:20:13.768Z,997.61
2022-11-24T00:21:12.757Z,997.61
2022-11-24T00:22:12.757Z,997.65
2022-11-24T00:23:12.757Z,997.69
2022-11-24T00:24:12.717Z,997.64
2022-11-24T00:25:12.722Z,997.65
2022-11-24T00:26:12.699Z,997.71
2022-11-24T00:27:12.719Z,997.71
2022-11-24T00:28:12.680Z,997.73
2022-11-24T00:29:12.680Z,997.71
2022-11-24T00:30:12.654Z,997.71
2022-11-24T00:31:16.968Z,997.69
2022-11-24T00:32:13.656Z,997.69
2022-11-24T00:33:12.621Z,997.73
2022-11-24T00:34:12.610Z,997.73
2022-11-24T00:35:12.600Z,997.75
2022-11-24T00:36:12.590Z,997.72
2022-11-24T00:37:12.600Z,997.72
2022-11-24T00:38:12.569Z,997.74
2022-11-24T00:39:12.559Z,997.76
2022-11-24T00:40:12.549Z,997.77
2022-11-24T00:41:12.530Z,997.77
2022-11-24T00:42:12.528Z,997.76
2022-11-24T00:43:12.540Z,997.76
2022-11-24T00:44:12.500Z,997.78
2022-11-24T00:45:14.051Z,997.78
2022-11-24T00:46:12.593Z,997.80
2022-11-24T00:47:12.566Z,997.79
2022-11-24T00:48:12.478Z,997.85
2022-11-24T00:49:12.452Z,997.85
2022-11-24T00:50:12.460Z,997.82
2022-11-24T00:51:12.421Z,997.82
2022-11-24T00:52:12.419Z,997.78
2022-11-24T00:53:12.402Z,997.75
2022-11-24T00:54:12.391Z,997.78
2022-11-24T00:55:12.402Z,997.76
2022-11-24T00:56:12.370Z,997.83
2022-11-24T00:57:12.361Z,997.82
2022-11-24T00:58:12.349Z,997.86
2022-11-24T00:59:12.339Z,997.83
2022-11-24T01:00:12.328Z,997.82
2022-11-24T01:01:12.374Z,997.83
2022-11-24T01:02:12.370Z,997.83
2022-11-24T01:03:12.311Z,997.87
2022-11-24T01:04:12.282Z,997.90
2022-11-24T01:05:12.271Z,997.94
2022-11-24T01:06:12.291Z,997.94
2022-11-24T01:07:12.287Z,997.90
2022-11-24T01:08:12.242Z,997.88
2022-11-24T01:09:12.238Z,997.93
2022-11-24T01:10:12.226Z,997.92
2022-11-24T01:11:12.201Z,997.90
2022-11-24T01:12:12.221Z,997.89
2022-11-24T01:13:12.189Z,997.96
2022-11-24T01:14:12.170Z,997.89
2022-11-24T01:15:12.163Z,997.90
2022-11-24T01:16:12.281Z,997.92
2022-11-24T01:17:12.164Z,997.93
2022-11-24T01:18:12.152Z,997.91
2022-11-24T01:19:12.121Z,997.90
2022-11-24T01:20:12.103Z,997.91
2022-11-24T01:21:12.092Z,997.90
2022-11-24T01:22:12.108Z,997.87
2022-11-24T01:23:12.074Z,997.89
2022-11-24T01:24:12.069Z,997.88
2022-11-24T01:25:12.051Z,997.92
2022-11-24T01:26:12.043Z,997.92
2022-11-24T01:27:12.032Z,998.02
2022-11-24T01:28:12.043Z,997.94
2022-11-24T01:29:12.008Z,998.02
2022-11-24T01:30:12.012Z,998.01
2022-11-24T01:31:12.041Z,998.04
2022-11-24T01:32:11.978Z,998.01
2022-11-24T01:33:12.110Z,998.03
2022-11-24T01:34:11.963Z,998.02
2022-11-24T01:35:11.946Z,997.97
2022-11-24T01:36:11.939Z,997.97
2022-11-24T01:37:11.945Z,998.01
2022-11-24T01:38:11.935Z,998.03
2022-11-24T01:39:11.901Z,997.98
2022-11-24T01:40:11.937Z,998.07
2022-11-24T01:41:11.874Z,998.08
2022-11-24T01:42:11.882Z,998.05
2022-11-24T01:43:11.854Z,998.10
2022-11-24T01:44:11.853Z,998.11
2022-11-24T01:45:11.839Z,998.14
2022-11-24T01:46:11.890Z,998.11
2022-11-24T01:47:11.812Z,998.12
2022-11-24T01:48:11.802Z,998.14
2022-11-24T01:49:11.791Z,998.16
2022-11-24T01:50:11.782Z,998.13
2022-11-24T01:51:11.784Z,998.16
2022-11-24T01:52:11.858Z,998.17
2022-11-24T01:53:11.741Z,998.18
2022-11-24T01:54:11.744Z,998.17
2022-11-24T01:55:11.728Z,998.23
2022-11-24T01:56:11.741Z,998.19
2022-11-24T01:57:11.703Z,998.23
2022-11-24T01:58:11.692Z,998.21
2022-11-24T01:59:11.694Z,998.14
2022-11-24T02:00:11.674Z,998.25
2022-11-24T02:01:11.688Z,998.21
2022-11-24T02:02:11.785Z,998.19
2022-11-24T02:03:11.633Z,998.24
2022-11-24T02:04:11.624Z,998.22
2022-11-24T02:05:11.613Z,998.20
2022-11-24T02:06:11.645Z,998.18
2022-11-24T02:07:11.621Z,998.22
2022-11-24T02:08:11.585Z,998.23
2022-11-24T02:09:11.571Z,998.26
2022-11-24T02:10:11.562Z,998.24
2022-11-24T02:11:11.555Z,998.25
2022-11-24T02:12:11.562Z,998.25
2022-11-24T02:13:11.530Z,998.23
2022-11-24T02:14:11.521Z,998.30
2022-11-24T02:15:11.505Z,998.33
2022-11-24T02:16:11.583Z,998.37
2022-11-24T02:17:11.512Z,998.40
2022-11-24T02:18:11.475Z,998.39
2022-11-24T02:19:11.454Z,998.40
2022-11-24T02:20:11.452Z,998.39
2022-11-24T02:21:11.442Z,998.40
2022-11-24T02:22:11.453Z,998.42
2022-11-24T02:23:11.415Z,998.41
2022-11-24T02:24:11.416Z,998.49
2022-11-24T02:25:11.403Z,998.43
2022-11-24T02:26:11.398Z,998.48
2022-11-24T02:27:11.380Z,998.48
2022-11-24T02:28:11.384Z,998.45
2022-11-24T02:29:11.355Z,998.48
2022-11-24T02:30:11.345Z,998.44
2022-11-24T02:31:11.360Z,998.49
2022-11-24T02:32:11.343Z,998.51
2022-11-24T02:33:11.333Z,998.47
2022-11-24T02:34:11.303Z,998.49
2022-11-24T02:35:11.285Z,998.53
2022-11-24T02:36:11.281Z,998.50
2022-11-24T02:37:11.286Z,998.50
2022-11-24T02:38:11.296Z,998.56
2022-11-24T02:39:11.245Z,998.50
2022-11-24T02:40:11.234Z,998.54
2022-11-24T02:41:11.224Z,998.52
2022-11-24T02:42:11.223Z,998.53
2022-11-24T02:43:11.224Z,998.50
2022-11-24T02:44:11.196Z,998.55
2022-11-24T02:45:11.185Z,998.55
2022-11-24T02:46:11.196Z,998.52
2022-11-24T02:47:11.155Z,998.52
2022-11-24T02:48:11.189Z,998.53
2022-11-24T02:49:11.138Z,998.58
2022-11-24T02:50:11.125Z,998.61
2022-11-24T02:51:11.105Z,998.54
2022-11-24T02:52:11.104Z,998.58
2022-11-24T02:53:11.094Z,998.59
2022-11-24T02:54:11.096Z,998.59
2022-11-24T02:55:11.066Z,998.63
2022-11-24T02:56:11.066Z,998.67
2022-11-24T02:57:11.073Z,998.69
2022-11-24T02:58:11.065Z,998.66
2022-11-24T02:59:11.046Z,998.74
2022-11-24T03:00:11.025Z,998.72
2022-11-24T03:01:11.032Z,998.72
2022-11-24T03:02:11.004Z,998.68
2022-11-24T03:03:11.027Z,998.78
2022-11-24T03:04:10.997Z,998.78
2022-11-24T03:05:10.963Z,998.83
2022-11-24T03:06:10.954Z,998.80
2022-11-24T03:07:10.960Z,998.80
2022-11-24T03:08:10.929Z,998.83
2022-11-24T03:09:10.945Z,998.80
2022-11-24T03:10:10.906Z,998.76
2022-11-24T03:11:10.895Z,998.83
2022-11-24T03:12:10.887Z,998.81
2022-11-24T03:13:10.866Z,998.84
2022-11-24T03:14:10.865Z,998.84
2022-11-24T03:15:10.873Z,998.81
2022-11-24T03:16:10.894Z,998.83
2022-11-24T03:17:10.826Z,998.81
2022-11-24T03:18:10.826Z,998.86
2022-11-24T03:19:10.805Z,998.77
2022-11-24T03:20:10.797Z,998.85
2022-11-24T03:21:10.805Z,998.83
2022-11-24T03:22:10.781Z,998.82
2022-11-24T03:23:10.764Z,998.87
2022-11-24T03:24:10.756Z,998.86
2022-11-24T03:25:10.758Z,998.86
2022-11-24T03:26:10.728Z,998.86
2022-11-24T03:27:10.717Z,998.88
2022-11-24T03:28:10.707Z,998.90
2022-11-24T03:29:10.699Z,998.95
2022-11-24T03:30:10.716Z,998.97
2022-11-24T03:31:10.694Z,998.94
2022-11-24T03:32:10.667Z,998.99
2022-11-24T03:33:10.650Z,998.96
2022-11-24T03:34:10.646Z,998.97
2022-11-24T03:35:10.629Z,998.97
2022-11-24T03:36:10.648Z,998.99
2022-11-24T03:37:10.611Z,999.00
2022-11-24T03:38:10.599Z,999.06
2022-11-24T03:39:10.587Z,999.06
2022-11-24T03:40:10.580Z,999.08
2022-11-24T03:41:10.587Z,999.06
2022-11-24T03:42:10.558Z,999.09
2022-11-24T03:43:10.547Z,999.13
2022-11-24T03:44:10.540Z,999.10
2022-11-24T03:45:44.091Z,999.09
2022-11-24T03:46:11.554Z,999.10
2022-11-24T03:47:10.501Z,999.14
2022-11-24T03:48:10.489Z,999.09
2022-11-24T03:49:10.478Z,999.06
2022-11-24T03:50:10.490Z,999.11
2022-11-24T03:51:10.483Z,999.13
2022-11-24T03:52:10.449Z,999.06
2022-11-24T03:53:10.438Z,999.13
2022-11-24T03:54:10.429Z,999.10
2022-11-24T03:55:10.431Z,999.10
2022-11-24T03:56:10.427Z,999.13
2022-11-24T03:57:10.398Z,999.15
2022-11-24T03:58:10.387Z,999.18
2022-11-24T03:59:10.368Z,999.19
2022-11-24T04:00:10.358Z,999.24
2022-11-24T04:01:10.360Z,999.23
2022-11-24T04:02:10.372Z,999.22
2022-11-24T04:03:10.458Z,999.20
2022-11-24T04:04:10.317Z,999.24
2022-11-24T04:05:31.300Z,999.26
2022-11-24T04:06:10.317Z,999.29
2022-11-24T04:07:10.330Z,999.31
2022-11-24T04:08:10.292Z,999.27
2022-11-24T04:09:10.260Z,999.26
2022-11-24T04:10:10.253Z,999.27
2022-11-24T04:11:10.261Z,999.29
2022-11-24T04:12:10.230Z,999.28
2022-11-24T04:13:10.220Z,999.27
2022-11-24T04:14:13.615Z,999.26
2022-11-24T04:15:10.193Z,999.26
2022-11-24T04:16:10.268Z,999.21
2022-11-24T04:17:10.199Z,999.25
2022-11-24T04:18:10.163Z,999.22
2022-11-24T04:19:10.152Z,999.23
2022-11-24T04:20:10.138Z,999.16
2022-11-24T04:21:10.151Z,999.21
2022-11-24T04:22:10.122Z,999.22
2022-11-24T04:23:10.118Z,999.26
2022-11-24T04:24:10.093Z,999.28
2022-11-24T04:25:10.082Z,999.25
2022-11-24T04:26:10.109Z,999.29
2022-11-24T04:27:10.068Z,999.28
2022-11-24T04:28:10.062Z,999.31
2022-11-24T04:29:10.040Z,999.31
2022-11-24T04:30:10.040Z,999.28
2022-11-24T04:31:10.071Z,999.31
2022-11-24T04:32:10.033Z,999.33
2022-11-24T04:33:10.000Z,999.37
2022-11-24T04:34:09.984Z,999.36
2022-11-24T04:35:09.971Z,999.36
2022-11-24T04:36:09.972Z,999.39
2022-11-24T04:37:09.972Z,999.38
2022-11-24T04:38:09.954Z,999.34
2022-11-24T04:39:25.672Z,999.35
2022-11-24T04:40:10.930Z,999.37
2022-11-24T04:41:09.911Z,999.44
2022-11-24T04:42:09.930Z,999.46
2022-11-24T04:43:09.900Z,999.46
2022-11-24T04:44:09.879Z,999.40
2022-11-24T04:45:09.871Z,999.48
2022-11-24T04:46:09.876Z,999.52
2022-11-24T04:47:09.870Z,999.52
2022-11-24T04:48:09.853Z,999.54
2022-11-24T04:49:09.831Z,999.49
2022-11-24T04:50:09.819Z,999.61
2022-11-24T04:51:09.810Z,999.61
2022-11-24T04:52:09.800Z,999.58
2022-11-24T04:53:09.802Z,999.66
2022-11-24T04:54:09.771Z,999.66
2022-11-24T04:55:09.786Z,999.66
2022-11-24T04:56:09.760Z,999.66
2022-11-24T04:57:09.751Z,999.66
2022-11-24T04:58:09.748Z,999.66
2022-11-24T04:59:09.746Z,999.73
2022-11-24T05:00:09.728Z,999.69
2022-11-24T05:01:09.711Z,999.67
2022-11-24T05:02:09.771Z,999.72
2022-11-24T05:03:09.714Z,999.73
2022-11-24T05:04:09.708Z,999.72
2022-11-24T05:05:09.654Z,999.71
2022-11-24T05:06:09.650Z,999.70
2022-11-24T05:07:12.360Z,999.76
2022-11-24T05:08:10.651Z,999.72
2022-11-24T05:09:09.614Z,999.76
2022-11-24T05:10:09.594Z,999.80
2022-11-24T05:11:09.594Z,999.80
2022-11-24T05:12:09.583Z,999.86
2022-11-24T05:13:09.603Z,999.86
2022-11-24T05:14:09.563Z,999.87
2022-11-24T05:15:09.563Z,999.86
2022-11-24T05:16:09.577Z,999.91
2022-11-24T05:17:09.536Z,999.89
2022-11-24T05:18:09.513Z,999.88
2022-11-24T05:19:09.503Z,999.90
2022-11-24T05:20:09.522Z,999.95
2022-11-24T05:21:09.486Z,999.96
2022-11-24T05:22:09.476Z,999.96
2022-11-24T05:23:09.473Z,999.98
2022-11-24T05:24:09.452Z,999.94
2022-11-24T05:25:09.436Z,999.95
2022-11-24T05:26:09.443Z,1000.01
2022-11-24T05:27:09.415Z,1000.05
2022-11-24T05:28:09.417Z,1000.09
2022-11-24T05:29:09.415Z,1000.04
2022-11-24T05:30:09.404Z,1000.07
2022-11-24T05:31:09.411Z,1000.08
2022-11-24T05:32:09.363Z,1000.09
2022-11-24T05:33:09.356Z,1000.09
2022-11-24T05:34:09.337Z,1000.13
2022-11-24T05:35:09.365Z,1000.16
2022-11-24T05:36:09.325Z,1000.15
2022-11-24T05:37:09.304Z,1000.13
2022-11-24T05:38:09.294Z,1000.15
2022-11-24T05:39:09.285Z,1000.21
2022-11-24T05:40:09.274Z,1000.20
2022-11-24T05:41:09.324Z,1000.21
2022-11-24T05:42:09.254Z,1000.19
2022-11-24T05:43:09.245Z,1000.22
2022-11-24T05:44:09.237Z,1000.16
2022-11-24T05:45:09.225Z,1000.23
2022-11-24T05:46:09.234Z,1000.22
2022-11-24T05:47:09.247Z,1000.20
2022-11-24T05:48:09.199Z,1000.29
2022-11-24T05:49:09.176Z,1000.25
2022-11-24T05:50:09.173Z,1000.25
2022-11-24T05:51:09.610Z,1000.25
2022-11-24T05:52:09.169Z,1000.24
2022-11-24T05:53:09.137Z,1000.21
2022-11-24T05:54:09.123Z,1000.22
2022-11-24T05:55:09.117Z,1000.26
2022-11-24T05:56:09.127Z,1000.30
2022-11-24T05:57:09.115Z,1000.33
2022-11-24T05:58:09.086Z,1000.30
2022-11-24T05:59:10.113Z,1000.34
2022-11-24T06:00:09.064Z,1000.39
2022-11-24T06:01:09.074Z,1000.40
2022-11-24T06:02:09.148Z,1000.37
2022-11-24T06:03:09.163Z,1000.41
2022-11-24T06:04:09.018Z,1000.40
2022-11-24T06:05:09.015Z,1000.43
2022-11-24T06:06:08.987Z,1000.49
2022-11-24T06:07:09.150Z,1000.49
2022-11-24T06:08:08.973Z,1000.43
2022-11-24T06:09:08.985Z,1000.45
2022-11-24T06:10:08.947Z,1000.47
2022-11-24T06:11:08.937Z,1000.49
2022-11-24T06:12:08.926Z,1000.48
2022-11-24T06:13:08.986Z,1000.47
2022-11-24T06:14:11.343Z,1000.55
2022-11-24T06:15:08.904Z,1000.49
2022-11-24T06:16:08.920Z,1000.60
2022-11-24T06:17:08.875Z,1000.58
2022-11-24T06:18:08.893Z,1000.61
2022-11-24T06:19:08.857Z,1000.65
2022-11-24T06:20:08.845Z,1000.56
2022-11-24T06:21:11.609Z,1000.65
2022-11-24T06:22:08.823Z,1000.65
2022-11-24T06:23:08.828Z,1000.64
2022-11-24T06:24:08.809Z,1000.64
2022-11-24T06:25:08.817Z,1000.63
2022-11-24T06:26:08.777Z,1000.68
2022-11-24T06:27:08.775Z,1000.67
2022-11-24T06:28:08.757Z,1000.72
2022-11-24T06:29:08.747Z,1000.71
2022-11-24T06:30:08.730Z,1000.74
2022-11-24T06:31:08.777Z,1000.74
2022-11-24T06:32:08.777Z,1000.76
2022-11-24T06:33:08.705Z,1000.80
2022-11-24T06:34:08.718Z,1000.81
2022-11-24T06:35:08.686Z,1000.78
2022-11-24T06:36:08.669Z,1000.79
2022-11-24T06:37:08.667Z,1000.81
2022-11-24T06:38:08.648Z,1000.82
2022-11-24T06:39:08.645Z,1000.88
2022-11-24T06:40:08.650Z,1000.90
2022-11-24T06:41:08.629Z,1000.93
2022-11-24T06:42:08.605Z,1000.94
2022-11-24T06:43:08.609Z,1000.94
2022-11-24T06:44:08.580Z,1000.94
2022-11-24T06:45:09.612Z,1000.88
2022-11-24T06:46:08.689Z,1000.90
2022-11-24T06:47:08.559Z,1000.94
2022-11-24T06:48:08.538Z,1000.93
2022-11-24T06:49:08.531Z,1000.94
2022-11-24T06:50:08.517Z,1001.04
2022-11-24T06:51:08.502Z,1001.00
2022-11-24T06:52:08.511Z,1001.07
2022-11-24T06:53:08.488Z,1001.08
2022-11-24T06:54:08.471Z,1001.06
2022-11-24T06:55:08.475Z,1001.05
2022-11-24T06:56:15.350Z,1001.06
2022-11-24T06:57:09.460Z,1001.08
2022-11-24T06:58:08.431Z,1001.12
2022-11-24T06:59:08.421Z,1001.10
2022-11-24T07:00:08.429Z,1001.14
2022-11-24T07:01:08.443Z,1001.07
2022-11-24T07:02:08.390Z,1001.11
2022-11-24T07:03:08.422Z,1001.10
2022-11-24T07:04:08.368Z,1001.10
2022-11-24T07:05:08.357Z,1001.14
2022-11-24T07:06:08.361Z,1001.20
2022-11-24T07:07:08.366Z,1001.16
2022-11-24T07:08:11.978Z,1001.12
2022-11-24T07:09:09.312Z,1001.13
2022-11-24T07:10:08.301Z,1001.15
2022-11-24T07:11:08.319Z,1001.19
2022-11-24T07:12:08.295Z,1001.17
2022-11-24T07:13:08.279Z,1001.18
2022-11-24T07:14:08.262Z,1001.17
2022-11-24T07:15:08.251Z,1001.19
2022-11-24T07:16:08.278Z,1001.21
2022-11-24T07:17:08.251Z,1001.23
2022-11-24T07:18:08.219Z,1001.21
2022-11-24T07:19:08.213Z,1001.25
2022-11-24T07:20:08.192Z,1001.23
2022-11-24T07:21:08.190Z,1001.29
2022-11-24T07:22:08.199Z,1001.29
2022-11-24T07:23:08.173Z,1001.33
2022-11-24T07:24:08.152Z,1001.29
2022-11-24T07:25:08.152Z,1001.27
2022-11-24T07:26:08.132Z,1001.28
2022-11-24T07:27:08.155Z,1001.29
2022-11-24T07:28:08.115Z,1001.34
2022-11-24T07:29:08.103Z,1001.33
2022-11-24T07:30:08.093Z,1001.33
2022-11-24T07:31:08.081Z,1001.38
2022-11-24T07:32:08.132Z,1001.33
2022-11-24T07:33:08.061Z,1001.36
2022-11-24T07:34:08.050Z,1001.35
2022-11-24T07:35:08.046Z,1001.43
2022-11-24T07:36:08.030Z,1001.35
2022-11-24T07:37:08.020Z,1001.34
2022-11-24T07:38:08.031Z,1001.43
2022-11-24T07:39:07.993Z,1001.39
2022-11-24T07:40:07.982Z,1001.46
2022-11-24T07:41:07.973Z,1001.52
2022-11-24T07:42:07.962Z,1001.55
2022-11-24T07:43:07.972Z,1001.56
2022-11-24T07:44:07.942Z,1001.57
2022-11-24T07:45:07.943Z,1001.61
2022-11-24T07:46:08.051Z,1001.63
2022-11-24T07:47:07.917Z,1001.59
2022-11-24T07:48:07.926Z,1001.65
2022-11-24T07:49:07.892Z,1001.65
2022-11-24T07:50:07.883Z,1001.68
2022-11-24T07:51:07.873Z,1001.71
2022-11-24T07:52:07.863Z,1001.71
2022-11-24T07:53:07.875Z,1001.71
2022-11-24T07:54:07.834Z,1001.70
2022-11-24T07:55:07.838Z,1001.70
2022-11-24T07:56:07.821Z,1001.68
2022-11-24T07:57:07.813Z,1001.69
2022-11-24T07:58:07.815Z,1001.74
2022-11-24T07:59:07.784Z,1001.82
2022-11-24T08:00:07.772Z,1001.74
2022-11-24T08:01:07.763Z,1001.80
2022-11-24T08:02:07.773Z,1001.82
2022-11-24T08:03:07.764Z,1001.78
2022-11-24T08:04:07.774Z,1001.81
2022-11-24T08:05:07.726Z,1001.76
2022-11-24T08:06:26.106Z,1001.77
2022-11-24T08:07:08.720Z,1001.78
2022-11-24T08:08:07.692Z,1001.83
2022-11-24T08:09:07.685Z,1001.87
2022-11-24T08:10:07.674Z,1001.87
2022-11-24T08:11:07.684Z,1001.91
2022-11-24T08:12:07.645Z,1001.97
2022-11-24T08:13:07.665Z,1001.91
2022-11-24T08:14:07.632Z,1001.91
2022-11-24T08:15:10.889Z,1001.93
2022-11-24T08:16:07.634Z,1001.93
2022-11-24T08:17:07.666Z,1001.92
2022-11-24T08:18:07.612Z,1001.90
2022-11-24T08:19:07.577Z,1001.93
2022-11-24T08:20:07.567Z,1001.90
2022-11-24T08:21:07.557Z,1001.94
2022-11-24T08:22:07.545Z,1001.96
2022-11-24T08:23:07.533Z,1001.98
2022-11-24T08:24:07.544Z,1001.99
2022-11-24T08:25:07.518Z,1001.98
2022-11-24T08:26:07.496Z,1002.02
2022-11-24T08:27:07.496Z,1002.03
2022-11-24T08:28:07.527Z,1002.08
2022-11-24T08:29:07.474Z,1002.03
2022-11-24T08:30:07.458Z,1002.06
2022-11-24T08:31:07.453Z,1002.06
2022-11-24T08:32:07.521Z,1002.05
2022-11-24T08:33:07.427Z,1002.08
2022-11-24T08:34:07.438Z,1002.12
2022-11-24T08:35:14.798Z,1002.08
2022-11-24T08:36:08.387Z,1002.16
2022-11-24T08:37:07.388Z,1002.19
2022-11-24T08:38:07.376Z,1002.22
2022-11-24T08:39:07.395Z,1002.23
2022-11-24T08:40:07.360Z,1002.24
2022-11-24T08:41:07.340Z,1002.23
2022-11-24T08:42:07.341Z,1002.22
2022-11-24T08:43:07.318Z,1002.22
2022-11-24T08:44:07.307Z,1002.25
2022-11-24T08:45:19.950Z,1002.26
2022-11-24T08:46:08.345Z,1002.23
2022-11-24T08:47:07.283Z,1002.30
2022-11-24T08:48:07.267Z,1002.25
2022-11-24T08:49:07.285Z,1002.34
2022-11-24T08:50:07.249Z,1002.39
2022-11-24T08:51:07.246Z,1002.36
2022-11-24T08:52:07.226Z,1002.40
2022-11-24T08:53:07.216Z,1002.39
2022-11-24T08:54:07.228Z,1002.41
2022-11-24T08:55:07.190Z,1002.41
2022-11-24T08:56:07.180Z,1002.46
2022-11-24T08:57:07.185Z,1002.44
2022-11-24T08:58:07.159Z,1002.42
2022-11-24T08:59:07.218Z,1002.41
2022-11-24T09:00:07.147Z,1002.46
2022-11-24T09:01:07.157Z,1002.48
2022-11-24T09:02:07.133Z,1002.49
2022-11-24T09:03:07.107Z,1002.42
2022-11-24T09:04:07.134Z,1002.50
2022-11-24T09:05:22.508Z,1002.51
2022-11-24T09:06:08.077Z,1002.53
2022-11-24T09:07:07.129Z,1002.58
2022-11-24T09:08:07.060Z,1002.58
2022-11-24T09:09:07.051Z,1002.56
2022-11-24T09:10:07.060Z,1002.56
2022-11-24T09:11:07.020Z,1002.61
2022-11-24T09:12:11.361Z,1002.64
2022-11-24T09:13:08.000Z,1002.66
2022-11-24T09:14:06.993Z,1002.62
2022-11-24T09:15:06.980Z,1002.64
2022-11-24T09:16:07.002Z,1002.70
2022-11-24T09:17:07.035Z,1002.73
2022-11-24T09:18:06.948Z,1002.74
2022-11-24T09:19:06.940Z,1002.78
2022-11-24T09:20:06.930Z,1002.78
2022-11-24T09:21:06.938Z,1002.79
2022-11-24T09:22:06.918Z,1002.82
2022-11-24T09:23:06.899Z,1002.86
2022-11-24T09:24:06.894Z,1002.88
2022-11-24T09:25:06.879Z,1002.85
2022-11-24T09:26:06.892Z,1002.89
2022-11-24T09:27:06.879Z,1002.87
2022-11-24T09:28:06.850Z,1002.90
2022-11-24T09:29:06.851Z,1002.96
2022-11-24T09:30:06.830Z,1003.05
2022-11-24T09:31:06.908Z,1002.99
2022-11-24T09:32:07.194Z,1002.94
2022-11-24T09:33:06.799Z,1003.03
2022-11-24T09:34:06.781Z,1003.04
2022-11-24T09:35:06.791Z,1003.02
2022-11-24T09:36:06.761Z,1003.04
2022-11-24T09:37:06.771Z,1003.06
2022-11-24T09:38:06.741Z,1003.07
2022-11-24T09:39:06.730Z,1003.11
2022-11-24T09:40:06.722Z,1003.11
2022-11-24T09:41:06.708Z,1003.15
2022-11-24T09:42:06.730Z,1003.14
2022-11-24T09:43:06.690Z,1003.14
2022-11-24T09:44:06.672Z,1003.15
2022-11-24T09:45:06.675Z,1003.18
2022-11-24T09:46:06.860Z,1003.19
2022-11-24T09:47:06.698Z,1003.19
2022-11-24T09:48:06.666Z,1003.17
2022-11-24T09:49:06.623Z,1003.20
2022-11-24T09:50:06.613Z,1003.17
2022-11-24T09:51:06.604Z,1003.20
2022-11-24T09:52:06.601Z,1003.20
2022-11-24T09:53:06.605Z,1003.23
2022-11-24T09:54:06.574Z,1003.24
2022-11-24T09:55:06.560Z,1003.27
2022-11-24T09:56:06.543Z,1003.25
2022-11-24T09:57:06.534Z,1003.27
2022-11-24T09:58:06.556Z,1003.28
2022-11-24T09:59:06.519Z,1003.30
2022-11-24T10:00:06.511Z,1003.36
2022-11-24T10:01:06.510Z,1003.35
2022-11-24T10:02:06.587Z,1003.34
2022-11-24T10:03:06.495Z,1003.40
2022-11-24T10:04:06.914Z,1003.38
2022-11-24T10:05:06.510Z,1003.47
2022-11-24T10:06:06.443Z,1003.42
2022-11-24T10:07:06.432Z,1003.52
2022-11-24T10:08:06.442Z,1003.52
2022-11-24T10:09:06.424Z,1003.54
2022-11-24T10:10:06.402Z,1003.54
2022-11-24T10:11:06.384Z,1003.55
2022-11-24T10:12:06.390Z,1003.55
2022-11-24T10:13:06.366Z,1003.55
2022-11-24T10:14:06.384Z,1003.55
2022-11-24T10:15:06.344Z,1003.57
2022-11-24T10:16:06.371Z,1003.60
2022-11-24T10:17:06.325Z,1003.55
2022-11-24T10:18:07.662Z,1003.57
2022-11-24T10:19:06.324Z,1003.59
2022-11-24T10:20:06.295Z,1003.62
2022-11-24T10:21:06.286Z,1003.62
2022-11-24T10:22:06.275Z,1003.62
2022-11-24T10:23:06.267Z,1003.59
2022-11-24T10:24:06.255Z,1003.55
2022-11-24T10:25:06.261Z,1003.58
2022-11-24T10:26:06.237Z,1003.59
2022-11-24T10:27:06.216Z,1003.63
2022-11-24T10:28:06.205Z,1003.61
2022-11-24T10:29:06.194Z,1003.63
2022-11-24T10:30:06.214Z,1003.66
2022-11-24T10:31:06.205Z,1003.63
2022-11-24T10:32:06.165Z,1003.62
2022-11-24T10:33:06.155Z,1003.65
2022-11-24T10:34:06.153Z,1003.62
2022-11-24T10:35:06.148Z,1003.64
2022-11-24T10:36:06.124Z,1003.61
2022-11-24T10:37:06.110Z,1003.63
2022-11-24T10:38:06.103Z,1003.63
2022-11-24T10:39:06.087Z,1003.62
2022-11-24T10:40:06.104Z,1003.60
2022-11-24T10:41:06.066Z,1003.58
2022-11-24T10:42:06.057Z,1003.59
2022-11-24T10:43:06.045Z,1003.61
2022-11-24T10:44:06.037Z,1003.53
2022-11-24T10:45:06.048Z,1003.59
2022-11-24T10:46:06.040Z,1003.60
2022-11-24T10:47:05.995Z,1003.60
2022-11-24T10:48:05.986Z,1003.64
2022-11-24T10:49:05.977Z,1003.63
2022-11-24T10:50:05.966Z,1003.63
2022-11-24T10:51:05.977Z,1003.69
2022-11-24T10:52:05.958Z,1003.63
2022-11-24T10:53:05.937Z,1003.67
2022-11-24T10:54:05.919Z,1003.71
2022-11-24T10:55:05.929Z,1003.71
2022-11-24T10:56:05.914Z,1003.73
2022-11-24T10:57:05.889Z,1003.78
2022-11-24T10:58:05.905Z,1003.84
2022-11-24T10:59:05.869Z,1003.88
2022-11-24T11:00:05.878Z,1003.90
2022-11-24T11:01:05.910Z,1003.89
2022-11-24T11:02:05.893Z,1003.88
2022-11-24T11:03:05.883Z,1003.96
2022-11-24T11:04:05.936Z,1003.92
2022-11-24T11:05:05.829Z,1003.88
2022-11-24T11:06:05.798Z,1003.92
2022-11-24T11:07:05.779Z,1003.92
2022-11-24T11:08:05.912Z,1003.94
2022-11-24T11:09:05.759Z,1003.97
2022-11-24T11:10:05.749Z,1004.02
2022-11-24T11:11:05.758Z,1003.97
2022-11-24T11:12:35.788Z,1003.99
2022-11-24T11:13:06.710Z,1003.97
2022-11-24T11:14:05.711Z,1004.09
2022-11-24T11:15:05.718Z,1003.99
2022-11-24T11:16:05.741Z,1004.08
2022-11-24T11:17:05.669Z,1004.06
2022-11-24T11:18:05.681Z,1004.09
2022-11-24T11:19:20.272Z,1004.14
2022-11-24T11:20:06.781Z,1004.09
2022-11-24T11:21:05.628Z,1004.02
2022-11-24T11:22:05.620Z,1004.07
2022-11-24T11:23:05.600Z,1004.11
2022-11-24T11:24:05.602Z,1004.15
2022-11-24T11:25:05.600Z,1004.19
2022-11-24T11:26:05.574Z,1004.21
2022-11-24T11:27:05.552Z,1004.19
2022-11-24T11:28:09.818Z,1004.24
2022-11-24T11:31:17.105Z,1004.21
2022-11-24T11:34:10.855Z,1004.26
2022-11-24T11:35:06.463Z,1004.36
2022-11-24T11:36:05.480Z,1004.32
2022-11-24T11:37:05.466Z,1004.26
2022-11-24T11:38:05.432Z,1004.31
2022-11-24T11:39:05.433Z,1004.29
2022-11-24T11:40:05.413Z,1004.34
2022-11-24T11:41:05.393Z,1004.30
2022-11-24T11:42:05.402Z,1004.29
2022-11-24T11:43:05.375Z,1004.34
2022-11-24T11:44:05.377Z,1004.28
2022-11-24T11:45:05.353Z,1004.30
2022-11-24T11:46:05.461Z,1004.27
2022-11-24T11:47:05.425Z,1004.33
2022-11-24T11:48:05.323Z,1004.33
2022-11-24T11:49:05.312Z,1004.28
2022-11-24T11:50:05.294Z,1004.25
2022-11-24T11:51:22.838Z,1004.28
2022-11-24T11:52:06.302Z,1004.26
2022-11-24T11:53:05.263Z,1004.27
2022-11-24T11:54:05.318Z,1004.25
2022-11-24T11:55:05.235Z,1004.29
2022-11-24T11:56:05.233Z,1004.27
2022-11-24T11:57:05.278Z,1004.26
2022-11-24T11:58:05.232Z,1004.23
2022-11-24T11:59:05.193Z,1004.23
2022-11-24T12:00:05.185Z,1004.21
2022-11-24T12:01:05.173Z,1004.24
2022-11-24T12:02:05.166Z,1004.25
2022-11-24T12:03:05.261Z,1004.20
2022-11-24T12:04:05.279Z,1004.27
2022-11-24T12:05:05.127Z,1004.24
2022-11-24T12:06:05.126Z,1004.26
2022-11-24T12:07:05.104Z,1004.28
2022-11-24T12:08:10.066Z,1004.32
2022-11-24T12:09:20.330Z,1004.26
2022-11-24T12:10:06.077Z,1004.20
2022-11-24T12:11:05.065Z,1004.28
2022-11-24T12:12:05.057Z,1004.32
2022-11-24T12:13:05.045Z,1004.30
2022-11-24T12:14:05.035Z,1004.36
2022-11-24T12:15:10.551Z,1004.38
2022-11-24T12:16:06.075Z,1004.40
2022-11-24T12:17:05.005Z,1004.48
2022-11-24T12:18:04.999Z,1004.49
2022-11-24T12:19:05.004Z,1004.45